createdAt,value
2018-09-05T00:00:21.944Z,19.87
2018-09-05T00:02:49.595Z,20.47
2018-09-05T00:05:17.191Z,19.53
2018-09-05T00:07:44.864Z,18.80
2018-09-05T00:10:12.779Z,17.77
2018-09-05T00:12:40.583Z,19.03
2018-09-05T00:15:08.324Z,20.40
2018-09-05T00:17:35.907Z,18.30
2018-09-05T00:20:03.623Z,18.40
2018-09-05T00:22:31.259Z,20.10
2018-09-05T00:24:59.007Z,19.73
2018-09-05T00:27:26.567Z,19.33
2018-09-05T00:29:54.212Z,19.50
2018-09-05T00:32:21.913Z,18.43
2018-09-05T00:34:49.572Z,18.67
2018-09-05T00:37:17.323Z,17.60
2018-09-05T00:39:44.967Z,20.03
2018-09-05T00:42:12.679Z,18.03
2018-09-05T00:44:40.322Z,18.80
2018-09-05T00:47:08.035Z,19.30
2018-09-05T00:49:35.779Z,19.10
2018-09-05T00:52:03.451Z,19.60
2018-09-05T00:54:31.063Z,18.73
2018-09-05T00:56:58.650Z,20.00
2018-09-05T00:59:26.492Z,20.93
2018-09-05T01:01:54.051Z,20.17
2018-09-05T01:04:21.736Z,17.80
2018-09-05T01:06:49.356Z,18.33
2018-09-05T01:09:16.951Z,18.30
2018-09-05T01:11:44.757Z,17.40
2018-09-05T01:14:12.655Z,19.40
2018-09-05T01:16:40.316Z,19.40
2018-09-05T01:19:07.847Z,18.33
2018-09-05T01:21:35.439Z,17.93
2018-09-05T01:24:03.168Z,18.80
2018-09-05T01:26:30.743Z,18.30
2018-09-05T01:28:58.358Z,17.67
2018-09-05T01:31:26.183Z,18.93
2018-09-05T01:33:54.542Z,18.40
2018-09-05T01:36:22.557Z,17.73
2018-09-05T01:38:50.342Z,17.53
2018-09-05T01:41:17.975Z,16.57
2018-09-05T01:43:45.715Z,19.27
2018-09-05T01:46:13.443Z,19.97
2018-09-05T01:48:41.196Z,19.70
2018-09-05T01:51:08.971Z,17.50
2018-09-05T01:53:36.512Z,18.10
2018-09-05T01:56:04.194Z,17.70
2018-09-05T01:58:31.971Z,18.20
2018-09-05T02:00:59.639Z,18.70
2018-09-05T02:03:27.307Z,17.43
2018-09-05T02:05:55.787Z,18.60
2018-09-05T02:08:23.497Z,18.67
2018-09-05T02:10:51.146Z,18.40
2018-09-05T02:13:18.713Z,18.60
2018-09-05T02:15:47.184Z,18.60
2018-09-05T02:18:14.881Z,17.17
2018-09-05T02:20:42.651Z,20.10
2018-09-05T02:23:10.457Z,18.43
2018-09-05T02:25:38.779Z,17.63
2018-09-05T02:28:07.054Z,18.03
2018-09-05T02:30:34.707Z,17.67
2018-09-05T02:33:02.379Z,18.43
2018-09-05T02:35:30.223Z,16.57
2018-09-05T02:37:57.894Z,16.27
2018-09-05T02:40:26.566Z,17.70
2018-09-05T02:42:54.167Z,18.60
2018-09-05T02:45:21.848Z,19.73
2018-09-05T02:47:49.584Z,18.10
2018-09-05T02:50:17.151Z,17.93
2018-09-05T02:52:44.904Z,18.17
2018-09-05T02:55:17.051Z,19.60
2018-09-05T02:57:44.595Z,19.30
2018-09-05T03:00:12.343Z,20.67
2018-09-05T03:02:39.975Z,17.93
2018-09-05T03:05:07.583Z,20.17
2018-09-05T03:07:35.262Z,20.20
2018-09-05T03:10:03.007Z,18.80
2018-09-05T03:12:31.187Z,19.17
2018-09-05T03:14:58.880Z,18.67
2018-09-05T03:17:26.515Z,18.07
2018-09-05T03:19:54.176Z,17.90
2018-09-05T03:22:21.776Z,17.60
2018-09-05T03:24:49.639Z,16.47
2018-09-05T03:27:17.204Z,17.70
2018-09-05T03:29:44.751Z,17.93
2018-09-05T03:32:13.632Z,17.87
2018-09-05T03:34:41.419Z,19.63
2018-09-05T03:37:09.360Z,21.03
2018-09-05T03:39:37.006Z,22.33
2018-09-05T03:42:04.963Z,20.60
2018-09-05T03:44:32.775Z,21.43
2018-09-05T03:47:00.316Z,21.03
2018-09-05T03:49:28.211Z,21.83
2018-09-05T03:51:55.936Z,22.00
2018-09-05T03:54:24.087Z,21.90
2018-09-05T03:56:52.100Z,22.07
2018-09-05T03:59:19.895Z,19.67
2018-09-05T04:01:47.483Z,21.00
2018-09-05T04:04:15.112Z,21.40
2018-09-05T04:06:42.915Z,21.63
2018-09-05T04:09:10.588Z,21.60
2018-09-05T04:11:38.544Z,22.03
2018-09-05T04:14:06.473Z,23.27
2018-09-05T04:16:34.096Z,23.73
2018-09-05T04:19:01.891Z,25.90
2018-09-05T04:21:29.531Z,22.77
2018-09-05T04:23:57.076Z,21.70
2018-09-05T04:26:24.745Z,22.63
2018-09-05T04:28:52.454Z,25.30
2018-09-05T04:31:21.900Z,22.60
2018-09-05T04:33:50.068Z,24.63
2018-09-05T04:36:18.306Z,24.13
2018-09-05T04:38:46.467Z,24.63
2018-09-05T04:41:14.937Z,29.23
2018-09-05T04:43:42.667Z,27.40
2018-09-05T04:46:10.347Z,26.53
2018-09-05T04:48:37.931Z,24.83
2018-09-05T04:51:05.680Z,25.67
2018-09-05T04:53:33.366Z,29.90
2018-09-05T04:56:01.217Z,30.90
2018-09-05T04:58:29.094Z,28.80
2018-09-05T05:00:57.790Z,25.87
2018-09-05T05:03:25.396Z,32.23
2018-09-05T05:05:53.223Z,26.67
2018-09-05T05:08:20.875Z,22.43
2018-09-05T05:10:48.628Z,25.00
2018-09-05T05:13:16.467Z,23.60
2018-09-05T05:15:44.152Z,21.73
2018-09-05T05:18:11.795Z,24.97
2018-09-05T05:20:39.493Z,23.60
2018-09-05T05:23:07.251Z,24.30
2018-09-05T05:25:34.972Z,23.63
2018-09-05T05:28:02.794Z,21.90
2018-09-05T05:30:30.647Z,23.07
2018-09-05T05:32:58.337Z,23.60
2018-09-05T05:35:25.963Z,22.83
2018-09-05T05:37:53.820Z,22.33
2018-09-05T05:40:22.145Z,22.73
2018-09-05T05:42:49.837Z,25.47
2018-09-05T05:45:17.636Z,23.87
2018-09-05T05:47:45.397Z,24.73
2018-09-05T05:50:13.127Z,25.10
2018-09-05T05:52:41.012Z,26.83
2018-09-05T05:55:09.148Z,29.83
2018-09-05T05:57:36.804Z,29.90
2018-09-05T06:00:05.403Z,26.00
2018-09-05T06:02:33.263Z,28.47
2018-09-05T06:05:01.109Z,27.93
2018-09-05T06:07:29.741Z,30.20
2018-09-05T06:09:57.440Z,37.37
2018-09-05T06:12:25.001Z,31.43
2018-09-05T06:14:52.777Z,32.53
2018-09-05T06:17:20.568Z,34.17
2018-09-05T06:19:48.441Z,33.67
2018-09-05T06:22:17.256Z,33.90
2018-09-05T06:24:44.958Z,39.00
2018-09-05T06:27:12.564Z,31.90
2018-09-05T06:29:40.937Z,35.40
2018-09-05T06:32:09.275Z,35.20
2018-09-05T06:34:36.964Z,33.40
2018-09-05T06:37:05.032Z,33.53
2018-09-05T06:39:32.671Z,33.27
2018-09-05T06:42:01.361Z,36.70
2018-09-05T06:44:29.326Z,34.57
2018-09-05T06:46:57.827Z,36.73
2018-09-05T06:49:25.466Z,37.37
2018-09-05T06:51:53.131Z,36.80
2018-09-05T06:54:22.144Z,36.60
2018-09-05T06:56:49.799Z,38.10
2018-09-05T06:59:17.472Z,36.30
2018-09-05T07:01:45.259Z,33.83
2018-09-05T07:04:13.004Z,36.70
2018-09-05T07:06:40.750Z,37.83
2018-09-05T07:09:10.179Z,35.20
2018-09-05T07:11:38.168Z,36.90
2018-09-05T07:14:06.314Z,31.73
2018-09-05T07:16:34.003Z,38.07
2018-09-05T07:19:01.755Z,36.67
2018-09-05T07:21:29.485Z,32.60
2018-09-05T07:23:56.987Z,34.33
2018-09-05T07:26:24.687Z,34.00
2018-09-05T07:28:52.591Z,33.47
2018-09-05T07:31:20.424Z,34.37
2018-09-05T07:33:48.211Z,37.43
2018-09-05T07:36:15.959Z,35.93
2018-09-05T07:38:43.600Z,35.67
2018-09-05T07:41:11.247Z,35.83
2018-09-05T07:43:38.985Z,31.43
2018-09-05T07:46:06.909Z,35.97
2018-09-05T07:48:34.683Z,37.27
2018-09-05T07:51:02.414Z,36.13
2018-09-05T07:53:30.595Z,35.77
2018-09-05T07:55:58.451Z,40.03
2018-09-05T07:58:26.288Z,36.77
2018-09-05T08:00:54.144Z,36.70
2018-09-05T08:03:22.864Z,37.47
2018-09-05T08:05:50.436Z,34.57
2018-09-05T08:08:18.272Z,36.53
2018-09-05T08:10:45.831Z,37.07
2018-09-05T08:13:13.736Z,33.10
2018-09-05T08:15:41.356Z,37.90
2018-09-05T08:18:09.011Z,34.57
2018-09-05T08:20:36.611Z,37.13
2018-09-05T08:23:04.723Z,32.13
2018-09-05T08:25:32.519Z,35.10
2018-09-05T08:28:00.312Z,35.70
2018-09-05T08:30:27.879Z,30.50
2018-09-05T08:32:55.543Z,32.60
2018-09-05T08:35:24.217Z,30.60
2018-09-05T08:37:51.852Z,33.90
2018-09-05T08:40:19.803Z,35.10
2018-09-05T08:42:47.411Z,31.40
2018-09-05T08:45:15.245Z,33.53
2018-09-05T08:47:43.458Z,34.97
2018-09-05T08:50:11.629Z,32.27
2018-09-05T08:52:39.875Z,33.20
2018-09-05T08:55:07.650Z,32.07
2018-09-05T08:57:35.364Z,27.40
2018-09-05T09:00:03.148Z,34.00
2018-09-05T09:02:30.860Z,31.50
2018-09-05T09:04:58.485Z,23.53
2018-09-05T09:07:26.166Z,26.60
2018-09-05T09:09:54.423Z,28.40
2018-09-05T09:12:22.196Z,19.50
2018-09-05T09:14:50.480Z,34.80
2018-09-05T09:17:18.058Z,27.13
2018-09-05T09:19:45.843Z,33.50
2018-09-05T09:22:13.488Z,30.80
2018-09-05T09:24:41.332Z,34.70
2018-09-05T09:27:09.783Z,27.33
2018-09-05T09:29:37.549Z,32.77
2018-09-05T09:32:05.554Z,35.60
2018-09-05T09:34:33.168Z,34.00
2018-09-05T09:37:00.948Z,33.43
2018-09-05T09:39:29.207Z,29.13
2018-09-05T09:41:57.015Z,32.80
2018-09-05T09:44:24.849Z,26.90
2018-09-05T09:46:52.687Z,24.97
2018-09-05T09:49:20.863Z,28.53
2018-09-05T09:51:48.699Z,26.47
2018-09-05T09:54:16.235Z,30.40
2018-09-05T09:56:44.897Z,31.70
2018-09-05T09:59:13.104Z,29.23
2018-09-05T10:01:46.481Z,30.13
2018-09-05T10:04:19.895Z,31.60
2018-09-05T10:06:50.145Z,32.63
2018-09-05T10:09:23.643Z,31.20
2018-09-05T10:11:57.093Z,23.27
2018-09-05T10:14:30.991Z,26.57
2018-09-05T10:17:04.246Z,26.03
2018-09-05T10:19:31.936Z,27.97
2018-09-05T10:21:59.553Z,28.37
2018-09-05T10:24:27.340Z,30.67
2018-09-05T10:26:55.001Z,25.13
2018-09-05T10:29:23.620Z,26.33
2018-09-05T10:31:51.492Z,23.53
2018-09-05T10:34:19.128Z,24.07
2018-09-05T10:36:46.767Z,25.27
2018-09-05T10:39:14.434Z,18.67
2018-09-05T10:41:42.098Z,20.60
2018-09-05T10:44:09.966Z,18.87
2018-09-05T10:46:37.900Z,28.50
2018-09-05T10:49:06.251Z,27.67
2018-09-05T10:51:39.594Z,29.03
2018-09-05T10:54:07.610Z,23.83
2018-09-05T10:56:35.349Z,24.70
2018-09-05T10:59:03.056Z,27.50
2018-09-05T11:01:30.907Z,26.67
2018-09-05T11:03:59.023Z,27.33
2018-09-05T11:06:26.799Z,16.70
2018-09-05T11:08:54.955Z,18.00
2018-09-05T11:11:22.535Z,27.70
2018-09-05T11:13:50.415Z,26.57
2018-09-05T11:16:18.663Z,23.03
2018-09-05T11:18:46.667Z,22.60
2018-09-05T11:21:14.701Z,21.93
2018-09-05T11:23:42.300Z,26.17
2018-09-05T11:26:10.187Z,23.10
2018-09-05T11:28:37.892Z,19.90
2018-09-05T11:31:06.475Z,20.90
2018-09-05T11:33:34.031Z,25.67
2018-09-05T11:36:01.772Z,23.03
2018-09-05T11:38:30.035Z,27.40
2018-09-05T11:40:57.884Z,26.37
2018-09-05T11:43:25.843Z,26.57
2018-09-05T11:45:53.664Z,22.77
2018-09-05T11:48:21.475Z,21.80
2018-09-05T11:50:49.171Z,23.23
2018-09-05T11:53:16.852Z,20.00
2018-09-05T11:55:45.109Z,20.90
2018-09-05T11:58:12.795Z,22.20
2018-09-05T12:00:40.467Z,26.00
2018-09-05T12:03:08.088Z,21.33
2018-09-05T12:05:35.776Z,25.87
2018-09-05T12:08:03.746Z,21.40
2018-09-05T12:10:31.570Z,25.43
2018-09-05T12:12:59.203Z,22.77
2018-09-05T12:15:27.163Z,24.40
2018-09-05T12:17:55.034Z,24.50
2018-09-05T12:20:22.828Z,21.70
2018-09-05T12:22:50.479Z,23.13
2018-09-05T12:25:18.688Z,21.50
2018-09-05T12:27:46.391Z,24.90
2018-09-05T12:30:13.955Z,25.70
2018-09-05T12:32:41.652Z,26.13
2018-09-05T12:35:09.409Z,19.47
2018-09-05T12:37:37.211Z,24.63
2018-09-05T12:40:05.347Z,26.00
2018-09-05T12:42:33.690Z,26.13
2018-09-05T12:45:01.448Z,26.93
2018-09-05T12:47:29.752Z,25.57
2018-09-05T12:49:57.314Z,26.63
2018-09-05T12:52:25.039Z,25.27
2018-09-05T12:54:52.867Z,26.20
2018-09-05T12:57:20.760Z,26.43
2018-09-05T12:59:48.541Z,25.17
2018-09-05T13:02:16.238Z,24.03
2018-09-05T13:04:43.939Z,21.83
2018-09-05T13:07:12.509Z,23.33
2018-09-05T13:09:40.325Z,21.13
2018-09-05T13:12:08.068Z,23.43
2018-09-05T13:14:35.775Z,25.53
2018-09-05T13:17:03.532Z,24.90
2018-09-05T13:19:31.415Z,26.03
2018-09-05T13:21:58.975Z,26.43
2018-09-05T13:24:26.620Z,26.27
2018-09-05T13:26:54.336Z,23.47
2018-09-05T13:29:22.255Z,28.13
2018-09-05T13:31:50.052Z,21.80
2018-09-05T13:34:17.900Z,25.60
2018-09-05T13:36:45.487Z,25.23
2018-09-05T13:39:13.168Z,26.40
2018-09-05T13:41:40.923Z,24.77
2018-09-05T13:44:09.315Z,24.40
2018-09-05T13:46:37.195Z,24.33
2018-09-05T13:49:04.948Z,23.53
2018-09-05T13:51:32.727Z,21.60
2018-09-05T13:54:00.868Z,22.97
2018-09-05T13:56:29.190Z,20.07
2018-09-05T13:58:56.838Z,25.13
2018-09-05T14:01:25.061Z,22.70
2018-09-05T14:03:52.767Z,22.37
2018-09-05T14:06:20.384Z,22.03
2018-09-05T14:08:48.916Z,22.17
2018-09-05T14:11:16.745Z,21.33
2018-09-05T14:13:44.425Z,22.83
2018-09-05T14:16:12.168Z,22.47
2018-09-05T14:18:39.828Z,18.70
2018-09-05T14:21:07.504Z,20.87
2018-09-05T14:23:35.196Z,21.87
2018-09-05T14:26:03.675Z,20.80
2018-09-05T14:28:32.075Z,21.53
2018-09-05T14:30:59.847Z,21.97
2018-09-05T14:33:27.714Z,19.10
2018-09-05T14:35:55.573Z,18.30
2018-09-05T14:38:23.489Z,21.10
2018-09-05T14:40:51.272Z,21.03
2018-09-05T14:43:18.931Z,19.50
2018-09-05T14:45:46.691Z,18.97
2018-09-05T14:48:14.540Z,19.10
2018-09-05T14:50:42.119Z,19.13
2018-09-05T14:53:09.903Z,21.37
2018-09-05T14:55:37.655Z,19.47
2018-09-05T14:58:05.564Z,21.13
2018-09-05T15:00:33.207Z,19.97
2018-09-05T15:03:00.917Z,19.17
2018-09-05T15:05:28.599Z,18.77
2018-09-05T15:07:56.245Z,19.67
2018-09-05T15:10:23.948Z,20.50
2018-09-05T15:12:51.875Z,19.07
2018-09-05T15:15:19.617Z,20.30
2018-09-05T15:17:47.311Z,19.50
2018-09-05T15:20:15.028Z,18.23
2018-09-05T15:22:42.800Z,19.20
2018-09-05T15:25:10.851Z,18.00
2018-09-05T15:27:38.449Z,18.83
2018-09-05T15:30:07.156Z,19.90
2018-09-05T15:32:34.829Z,19.00
2018-09-05T15:35:02.444Z,19.63
2018-09-05T15:37:30.151Z,18.07
2018-09-05T15:39:57.780Z,19.33
2018-09-05T15:42:25.479Z,18.13
2018-09-05T15:44:53.404Z,19.10
2018-09-05T15:47:21.152Z,19.77
2018-09-05T15:49:48.919Z,18.57
2018-09-05T15:52:16.488Z,18.47
2018-09-05T15:54:44.142Z,19.40
2018-09-05T15:57:11.856Z,19.27
2018-09-05T15:59:39.587Z,18.90
2018-09-05T16:02:07.388Z,18.97
2018-09-05T16:04:34.957Z,17.00
2018-09-05T16:07:02.652Z,19.20
2018-09-05T16:09:30.443Z,18.23
2018-09-05T16:11:59.256Z,17.43
2018-09-05T16:14:27.021Z,18.53
2018-09-05T16:16:55.067Z,19.10
2018-09-05T16:19:22.732Z,18.53
2018-09-05T16:21:51.092Z,16.70
2018-09-05T16:24:18.648Z,16.97
2018-09-05T16:26:47.016Z,19.00
2018-09-05T16:29:15.079Z,18.07
2018-09-05T16:31:42.744Z,18.50
2018-09-05T16:34:10.383Z,17.70
2018-09-05T16:36:38.179Z,18.57
2018-09-05T16:39:08.859Z,18.80
2018-09-05T16:41:37.295Z,18.33
2018-09-05T16:44:05.551Z,17.37
2018-09-05T16:46:33.279Z,17.90
2018-09-05T16:49:01.754Z,18.63
2018-09-05T16:51:29.323Z,19.13
2018-09-05T16:53:57.042Z,17.27
2018-09-05T16:56:24.893Z,18.60
2018-09-05T16:58:52.571Z,19.63
2018-09-05T17:01:20.953Z,20.43
2018-09-05T17:03:48.852Z,19.13
2018-09-05T17:06:17.104Z,18.30
2018-09-05T17:08:44.817Z,18.73
2018-09-05T17:11:12.623Z,20.20
2018-09-05T17:13:40.301Z,21.57
2018-09-05T17:16:08.118Z,21.10
2018-09-05T17:18:35.808Z,22.53
2018-09-05T17:21:04.160Z,20.30
2018-09-05T17:23:31.825Z,22.57
2018-09-05T17:26:00.921Z,20.90
2018-09-05T17:28:28.713Z,20.20
2018-09-05T17:30:56.601Z,20.90
2018-09-05T17:33:24.293Z,20.63
2018-09-05T17:35:51.995Z,22.80
2018-09-05T17:38:19.695Z,23.37
2018-09-05T17:40:47.599Z,21.37
2018-09-05T17:43:15.304Z,21.00
2018-09-05T17:45:42.926Z,23.27
2018-09-05T17:48:10.651Z,22.87
2018-09-05T17:50:38.444Z,21.90
2018-09-05T17:53:06.166Z,20.53
2018-09-05T17:55:34.036Z,21.23
2018-09-05T17:58:01.887Z,20.77
2018-09-05T18:00:29.824Z,21.63
2018-09-05T18:02:57.460Z,21.67
2018-09-05T18:05:25.364Z,22.90
2018-09-05T18:07:54.527Z,22.80
2018-09-05T18:10:22.248Z,23.17
2018-09-05T18:12:51.123Z,23.53
2018-09-05T18:15:18.683Z,23.60
2018-09-05T18:17:46.312Z,24.80
2018-09-05T18:20:15.123Z,23.70
2018-09-05T18:22:42.910Z,26.23
2018-09-05T18:25:10.671Z,24.90
2018-09-05T18:27:38.304Z,24.73
2018-09-05T18:30:06.779Z,25.60
2018-09-05T18:32:34.770Z,25.27
2018-09-05T18:35:03.288Z,27.00
2018-09-05T18:37:30.928Z,26.50
2018-09-05T18:39:58.741Z,26.27
2018-09-05T18:42:26.440Z,24.97
2018-09-05T18:44:54.424Z,27.73
2018-09-05T18:47:22.236Z,28.23
2018-09-05T18:49:49.996Z,28.10
2018-09-05T18:52:17.764Z,26.40
2018-09-05T18:54:45.516Z,27.07
2018-09-05T18:57:13.980Z,26.90
2018-09-05T18:59:41.594Z,27.83
2018-09-05T19:02:09.930Z,28.37
2018-09-05T19:04:37.812Z,27.53
2018-09-05T19:07:05.935Z,27.40
2018-09-05T19:09:33.735Z,26.93
2018-09-05T19:12:01.643Z,27.40
2018-09-05T19:14:29.393Z,28.20
2018-09-05T19:16:56.999Z,28.83
2018-09-05T19:19:24.764Z,27.60
2018-09-05T19:21:52.403Z,28.50
2018-09-05T19:24:19.987Z,28.77
2018-09-05T19:26:47.679Z,28.17
2018-09-05T19:29:15.758Z,30.10
2018-09-05T19:31:43.675Z,30.23
2018-09-05T19:34:11.259Z,33.20
2018-09-05T19:36:39.839Z,30.30
2018-09-05T19:39:09.287Z,29.30
2018-09-05T19:41:36.941Z,28.17
2018-09-05T19:44:04.899Z,29.73
2018-09-05T19:46:32.547Z,29.97
2018-09-05T19:49:00.416Z,30.73
2018-09-05T19:51:28.907Z,30.43
2018-09-05T19:53:56.812Z,31.93
2018-09-05T19:56:24.423Z,31.13
2018-09-05T19:58:52.163Z,32.60
2018-09-05T20:01:20.617Z,30.47
2018-09-05T20:03:48.253Z,29.73
2018-09-05T20:06:16.051Z,29.47
2018-09-05T20:08:43.780Z,31.93
2018-09-05T20:11:11.291Z,31.23
2018-09-05T20:13:38.951Z,33.03
2018-09-05T20:16:06.532Z,31.13
2018-09-05T20:18:34.291Z,29.70
2018-09-05T20:21:02.252Z,33.30
2018-09-05T20:23:29.939Z,32.23
2018-09-05T20:25:58.355Z,31.97
2018-09-05T20:28:26.453Z,29.90
2018-09-05T20:30:54.971Z,30.30
2018-09-05T20:33:22.634Z,30.90
2018-09-05T20:35:50.283Z,30.07
2018-09-05T20:38:18.159Z,29.57
2018-09-05T20:40:45.881Z,32.60
2018-09-05T20:43:14.469Z,31.57
2018-09-05T20:45:42.316Z,31.63
2018-09-05T20:48:10.160Z,32.73
2018-09-05T20:50:38.040Z,31.90
2018-09-05T20:53:05.989Z,33.13
2018-09-05T20:55:33.899Z,32.43
2018-09-05T20:58:01.561Z,31.07
2018-09-05T21:00:29.988Z,33.37
2018-09-05T21:02:57.592Z,33.67
2018-09-05T21:05:25.348Z,31.27
2018-09-05T21:07:53.231Z,31.83
2018-09-05T21:10:20.981Z,36.30
2018-09-05T21:12:48.704Z,36.03
2018-09-05T21:15:16.331Z,33.80
2018-09-05T21:17:44.553Z,35.20
2018-09-05T21:20:12.424Z,32.20
2018-09-05T21:22:39.960Z,30.87
2018-09-05T21:25:07.673Z,31.60
2018-09-05T21:27:36.203Z,31.83
2018-09-05T21:30:03.908Z,33.43
2018-09-05T21:32:31.783Z,35.17
2018-09-05T21:34:59.437Z,33.17
2018-09-05T21:37:27.194Z,35.80
2018-09-05T21:39:54.955Z,34.50
2018-09-05T21:42:23.272Z,36.67
2018-09-05T21:44:51.112Z,37.13
2018-09-05T21:47:18.819Z,37.50
2018-09-05T21:49:46.348Z,35.47
2018-09-05T21:52:14.160Z,36.20
2018-09-05T21:54:41.831Z,35.60
2018-09-05T21:57:09.520Z,33.57
2018-09-05T21:59:37.191Z,37.60
2018-09-05T22:02:05.080Z,35.60
2018-09-05T22:04:32.749Z,35.30
2018-09-05T22:07:01.292Z,37.83
2018-09-05T22:09:28.887Z,34.03
2018-09-05T22:11:56.941Z,37.00
2018-09-05T22:14:24.598Z,37.93
2018-09-05T22:16:52.430Z,39.50
2018-09-05T22:19:20.065Z,37.93
2018-09-05T22:21:47.639Z,37.80
2018-09-05T22:24:15.195Z,37.87
2018-09-05T22:26:42.960Z,35.60
2018-09-05T22:29:10.615Z,37.20
2018-09-05T22:31:38.351Z,37.80
2018-09-05T22:34:08.352Z,36.70
2018-09-05T22:36:35.963Z,38.03
2018-09-05T22:39:04.787Z,38.80
2018-09-05T22:41:32.465Z,38.43
2018-09-05T22:44:11.591Z,39.00
2018-09-05T22:46:50.531Z,37.50
2018-09-05T22:52:12.869Z,36.70
2018-09-05T22:55:02.636Z,36.33
2018-09-05T22:57:43.248Z,35.17
2018-09-05T23:02:27.151Z,36.87
2018-09-05T23:05:04.898Z,35.40
2018-09-05T23:07:47.837Z,37.70
2018-09-05T23:10:26.641Z,37.93
2018-09-05T23:13:05.804Z,37.63
2018-09-05T23:15:44.738Z,37.33
2018-09-05T23:18:24.443Z,36.97
2018-09-05T23:21:26.757Z,35.00
2018-09-05T23:24:01.686Z,37.07
2018-09-05T23:26:29.789Z,36.40
2018-09-05T23:28:57.472Z,38.03
2018-09-05T23:31:25.384Z,40.83
2018-09-05T23:33:53.825Z,37.53
2018-09-05T23:36:21.859Z,38.77
2018-09-05T23:38:49.605Z,43.70
2018-09-05T23:41:17.209Z,39.10
2018-09-05T23:43:44.973Z,39.77
2018-09-05T23:46:12.909Z,39.33
2018-09-05T23:48:40.484Z,40.73
2018-09-05T23:51:08.821Z,40.53
2018-09-05T23:53:36.537Z,41.03
2018-09-05T23:56:04.816Z,41.57
2018-09-05T23:58:32.649Z,44.00
